createdAt,value
2023-05-16T00:00:06.944Z,1012.36
2023-05-16T00:01:06.913Z,1012.37
2023-05-16T00:02:06.320Z,1012.37
2023-05-16T00:03:06.986Z,1012.39
2023-05-16T00:04:07.026Z,1012.36
2023-05-16T00:05:06.855Z,1012.41
2023-05-16T00:06:06.869Z,1012.41
2023-05-16T00:07:06.169Z,1012.42
2023-05-16T00:08:06.854Z,1012.40
2023-05-16T00:09:06.807Z,1012.37
2023-05-16T00:10:06.832Z,1012.40
2023-05-16T00:11:06.802Z,1012.42
2023-05-16T00:12:06.109Z,1012.42
2023-05-16T00:13:06.775Z,1012.39
2023-05-16T00:14:06.114Z,1012.41
2023-05-16T00:15:06.758Z,1012.44
2023-05-16T00:16:06.850Z,1012.46
2023-05-16T00:17:06.937Z,1012.52
2023-05-16T00:18:06.095Z,1012.49
2023-05-16T00:19:06.080Z,1012.51
2023-05-16T00:20:06.011Z,1012.45
2023-05-16T00:21:06.696Z,1012.43
2023-05-16T00:22:06.745Z,1012.46
2023-05-16T00:23:06.654Z,1012.49
2023-05-16T00:24:06.661Z,1012.59
2023-05-16T00:25:05.960Z,1012.51
2023-05-16T00:26:05.947Z,1012.57
2023-05-16T00:27:06.622Z,1012.53
2023-05-16T00:28:06.602Z,1012.58
2023-05-16T00:29:05.922Z,1012.67
2023-05-16T00:30:05.915Z,1012.61
2023-05-16T00:31:05.896Z,1012.63
2023-05-16T00:32:06.615Z,1012.67
2023-05-16T00:33:06.597Z,1012.65
2023-05-16T00:34:06.618Z,1012.67
2023-05-16T00:35:05.856Z,1012.63
2023-05-16T00:36:06.535Z,1012.64
2023-05-16T00:37:06.501Z,1012.68
2023-05-16T00:38:05.825Z,1012.60
2023-05-16T00:39:06.494Z,1012.65
2023-05-16T00:40:06.541Z,1012.64
2023-05-16T00:41:06.485Z,1012.61
2023-05-16T00:42:06.464Z,1012.62
2023-05-16T00:43:05.771Z,1012.56
2023-05-16T00:44:06.451Z,1012.68
2023-05-16T00:45:06.425Z,1012.66
2023-05-16T00:46:06.497Z,1012.62
2023-05-16T00:47:06.397Z,1012.72
2023-05-16T00:48:05.781Z,1012.78
2023-05-16T00:49:06.420Z,1012.71
2023-05-16T00:50:05.693Z,1012.68
2023-05-16T00:51:06.352Z,1012.73
2023-05-16T00:52:05.689Z,1012.68
2023-05-16T00:53:06.348Z,1012.70
2023-05-16T00:54:05.677Z,1012.69
2023-05-16T00:55:06.336Z,1012.72
2023-05-16T00:56:06.324Z,1012.67
2023-05-16T00:57:06.303Z,1012.73
2023-05-16T00:58:05.606Z,1012.73
2023-05-16T00:59:06.299Z,1012.72
2023-05-16T01:00:05.604Z,1012.69
2023-05-16T01:01:06.298Z,1012.74
2023-05-16T01:02:06.258Z,1012.73
2023-05-16T01:03:05.699Z,1012.68
2023-05-16T01:04:06.380Z,1012.74
2023-05-16T01:05:05.558Z,1012.69
2023-05-16T01:06:06.204Z,1012.68
2023-05-16T01:07:06.205Z,1012.71
2023-05-16T01:08:06.189Z,1012.73
2023-05-16T01:09:05.477Z,1012.73
2023-05-16T01:10:06.146Z,1012.73
2023-05-16T01:11:05.461Z,1012.69
2023-05-16T01:12:06.150Z,1012.71
2023-05-16T01:13:05.440Z,1012.75
2023-05-16T01:14:05.451Z,1012.80
2023-05-16T01:15:06.086Z,1012.79
2023-05-16T01:16:05.466Z,1012.77
2023-05-16T01:17:06.094Z,1012.80
2023-05-16T01:18:06.130Z,1012.81
2023-05-16T01:19:06.135Z,1012.82
2023-05-16T01:20:06.051Z,1012.81
2023-05-16T01:21:05.355Z,1012.82
2023-05-16T01:22:06.034Z,1012.85
2023-05-16T01:23:06.016Z,1012.83
2023-05-16T01:24:05.381Z,1012.85
2023-05-16T01:25:06.008Z,1012.83
2023-05-16T01:26:05.986Z,1012.80
2023-05-16T01:27:05.290Z,1012.85
2023-05-16T01:28:05.306Z,1012.90
2023-05-16T01:29:05.935Z,1012.85
2023-05-16T01:30:05.312Z,1012.90
2023-05-16T01:31:05.945Z,1012.87
2023-05-16T01:32:05.962Z,1012.88
2023-05-16T01:33:05.320Z,1012.90
2023-05-16T01:34:05.901Z,1012.87
2023-05-16T01:35:05.193Z,1012.88
2023-05-16T01:36:05.206Z,1012.91
2023-05-16T01:37:05.864Z,1012.88
2023-05-16T01:38:05.835Z,1012.90
2023-05-16T01:39:05.849Z,1012.91
2023-05-16T01:40:05.161Z,1012.94
2023-05-16T01:41:05.823Z,1012.97
2023-05-16T01:42:05.800Z,1012.96
2023-05-16T01:43:05.149Z,1013.00
2023-05-16T01:44:05.115Z,1013.01
2023-05-16T01:45:05.083Z,1013.00
2023-05-16T01:46:05.775Z,1013.04
2023-05-16T01:47:05.970Z,1013.07
2023-05-16T01:48:05.773Z,1013.08
2023-05-16T01:49:05.032Z,1013.11
2023-05-16T01:50:05.036Z,1013.07
2023-05-16T01:51:05.762Z,1013.14
2023-05-16T01:52:05.695Z,1013.16
2023-05-16T01:53:05.698Z,1013.14
2023-05-16T01:54:04.992Z,1013.14
2023-05-16T01:55:05.678Z,1013.12
2023-05-16T01:56:04.998Z,1013.13
2023-05-16T01:57:04.975Z,1013.09
2023-05-16T01:58:04.951Z,1013.10
2023-05-16T01:59:04.931Z,1013.22
2023-05-16T02:00:05.623Z,1013.15
2023-05-16T02:01:05.671Z,1013.16
2023-05-16T02:02:04.936Z,1013.14
2023-05-16T02:03:05.620Z,1013.16
2023-05-16T02:04:05.660Z,1013.13
2023-05-16T02:05:05.622Z,1013.17
2023-05-16T02:06:05.540Z,1013.10
2023-05-16T02:07:04.933Z,1013.13
2023-05-16T02:08:04.844Z,1013.10
2023-05-16T02:09:04.840Z,1013.19
2023-05-16T02:10:05.493Z,1013.16
2023-05-16T02:11:05.483Z,1013.20
2023-05-16T02:12:05.515Z,1013.19
2023-05-16T02:13:04.786Z,1013.22
2023-05-16T02:14:05.482Z,1013.23
2023-05-16T02:15:05.446Z,1013.27
2023-05-16T02:16:05.501Z,1013.21
2023-05-16T02:17:05.464Z,1013.24
2023-05-16T02:18:05.562Z,1013.29
2023-05-16T02:19:04.771Z,1013.26
2023-05-16T02:20:05.386Z,1013.25
2023-05-16T02:21:04.733Z,1013.29
2023-05-16T02:22:05.391Z,1013.23
2023-05-16T02:23:05.383Z,1013.24
2023-05-16T02:24:04.677Z,1013.30
2023-05-16T02:25:04.701Z,1013.29
2023-05-16T02:26:05.337Z,1013.26
2023-05-16T02:27:05.324Z,1013.31
2023-05-16T02:28:05.318Z,1013.30
2023-05-16T02:29:04.644Z,1013.30
2023-05-16T02:30:04.599Z,1013.28
2023-05-16T02:31:04.673Z,1013.25
2023-05-16T02:32:05.309Z,1013.31
2023-05-16T02:33:05.305Z,1013.31
2023-05-16T02:34:05.240Z,1013.28
2023-05-16T02:35:05.255Z,1013.30
2023-05-16T02:36:04.549Z,1013.33
2023-05-16T02:37:05.222Z,1013.37
2023-05-16T02:38:05.188Z,1013.34
2023-05-16T02:39:05.176Z,1013.36
2023-05-16T02:40:04.500Z,1013.35
2023-05-16T02:41:05.180Z,1013.39
2023-05-16T02:42:04.469Z,1013.42
2023-05-16T02:43:04.468Z,1013.37
2023-05-16T02:44:05.148Z,1013.42
2023-05-16T02:45:04.456Z,1013.39
2023-05-16T02:46:04.467Z,1013.37
2023-05-16T02:47:05.113Z,1013.32
2023-05-16T02:48:04.458Z,1013.33
2023-05-16T02:49:05.100Z,1013.36
2023-05-16T02:50:05.080Z,1013.37
2023-05-16T02:51:05.073Z,1013.43
2023-05-16T02:52:05.037Z,1013.43
2023-05-16T02:53:05.025Z,1013.40
2023-05-16T02:54:04.355Z,1013.48
2023-05-16T02:55:20.974Z,1013.49
2023-05-16T02:56:06.008Z,1013.52
2023-05-16T02:57:04.985Z,1013.51
2023-05-16T02:58:04.996Z,1013.52
2023-05-16T02:59:04.288Z,1013.54
2023-05-16T03:00:04.298Z,1013.54
2023-05-16T03:01:05.025Z,1013.61
2023-05-16T03:02:05.093Z,1013.57
2023-05-16T03:03:05.018Z,1013.57
2023-05-16T03:04:05.092Z,1013.56
2023-05-16T03:05:04.238Z,1013.59
2023-05-16T03:06:04.227Z,1013.58
2023-05-16T03:07:04.215Z,1013.60
2023-05-16T03:08:04.235Z,1013.63
2023-05-16T03:09:04.870Z,1013.59
2023-05-16T03:10:04.935Z,1013.59
2023-05-16T03:11:04.837Z,1013.61
2023-05-16T03:12:04.507Z,1013.58
2023-05-16T03:13:04.148Z,1013.57
2023-05-16T03:14:04.826Z,1013.59
2023-05-16T03:15:04.139Z,1013.62
2023-05-16T03:16:04.845Z,1013.61
2023-05-16T03:17:04.119Z,1013.61
2023-05-16T03:18:04.870Z,1013.68
2023-05-16T03:19:04.147Z,1013.59
2023-05-16T03:20:04.093Z,1013.66
2023-05-16T03:21:04.733Z,1013.67
2023-05-16T03:22:04.097Z,1013.66
2023-05-16T03:23:04.065Z,1013.69
2023-05-16T03:24:04.076Z,1013.65
2023-05-16T03:25:04.059Z,1013.70
2023-05-16T03:26:04.708Z,1013.65
2023-05-16T03:27:04.062Z,1013.69
2023-05-16T03:28:04.706Z,1013.72
2023-05-16T03:29:04.036Z,1013.75
2023-05-16T03:30:04.005Z,1013.77
2023-05-16T03:31:04.766Z,1013.83
2023-05-16T03:32:04.667Z,1013.81
2023-05-16T03:33:04.668Z,1013.84
2023-05-16T03:34:04.602Z,1013.84
2023-05-16T03:35:04.573Z,1013.85
2023-05-16T03:36:04.579Z,1013.89
2023-05-16T03:37:04.587Z,1013.89
2023-05-16T03:38:04.568Z,1013.91
2023-05-16T03:39:04.540Z,1013.89
2023-05-16T03:40:03.853Z,1013.91
2023-05-16T03:41:04.526Z,1013.91
2023-05-16T03:42:04.524Z,1013.90
2023-05-16T03:43:04.518Z,1013.96
2023-05-16T03:44:04.475Z,1013.94
2023-05-16T03:45:04.478Z,1013.98
2023-05-16T03:46:03.831Z,1013.99
2023-05-16T03:47:04.457Z,1014.01
2023-05-16T03:48:04.477Z,1013.96
2023-05-16T03:49:03.776Z,1014.02
2023-05-16T03:50:04.445Z,1013.97
2023-05-16T03:51:04.421Z,1014.01
2023-05-16T03:52:04.490Z,1014.05
2023-05-16T03:53:03.774Z,1014.07
2023-05-16T03:54:04.394Z,1014.02
2023-05-16T03:55:04.366Z,1014.05
2023-05-16T03:56:03.729Z,1014.06
2023-05-16T03:57:04.366Z,1014.04
2023-05-16T03:58:03.693Z,1014.04
2023-05-16T03:59:03.738Z,1014.07
2023-05-16T04:00:03.667Z,1014.07
2023-05-16T04:01:03.641Z,1014.12
2023-05-16T04:02:04.348Z,1014.09
2023-05-16T04:03:04.307Z,1014.14
2023-05-16T04:04:03.601Z,1014.11
2023-05-16T04:05:04.262Z,1014.16
2023-05-16T04:06:04.324Z,1014.16
2023-05-16T04:07:04.219Z,1014.16
2023-05-16T04:08:03.601Z,1014.20
2023-05-16T04:09:03.543Z,1014.16
2023-05-16T04:10:04.211Z,1014.21
2023-05-16T04:11:04.199Z,1014.19
2023-05-16T04:12:04.957Z,1014.22
2023-05-16T04:13:04.174Z,1014.20
2023-05-16T04:14:04.458Z,1014.30
2023-05-16T04:15:04.411Z,1014.27
2023-05-16T04:16:03.474Z,1014.25
2023-05-16T04:17:04.264Z,1014.30
2023-05-16T04:18:04.301Z,1014.39
2023-05-16T04:19:04.355Z,1014.37
2023-05-16T04:20:03.415Z,1014.42
2023-05-16T04:21:03.413Z,1014.39
2023-05-16T04:22:04.103Z,1014.41
2023-05-16T04:23:03.380Z,1014.43
2023-05-16T04:24:04.062Z,1014.42
2023-05-16T04:25:04.022Z,1014.37
2023-05-16T04:26:04.011Z,1014.39
2023-05-16T04:27:03.334Z,1014.40
2023-05-16T04:28:03.320Z,1014.46
2023-05-16T04:29:04.002Z,1014.46
2023-05-16T04:30:03.971Z,1014.51
2023-05-16T04:31:03.420Z,1014.50
2023-05-16T04:32:04.022Z,1014.56
2023-05-16T04:33:03.326Z,1014.52
2023-05-16T04:34:05.213Z,1014.61
2023-05-16T04:35:03.917Z,1014.59
2023-05-16T04:36:03.932Z,1014.63
2023-05-16T04:37:03.282Z,1014.59
2023-05-16T04:38:03.903Z,1014.64
2023-05-16T04:39:04.205Z,1014.67
2023-05-16T04:40:05.174Z,1014.68
2023-05-16T04:41:03.906Z,1014.76
2023-05-16T04:42:04.161Z,1014.68
2023-05-16T04:43:05.116Z,1014.74
2023-05-16T04:44:04.177Z,1014.78
2023-05-16T04:45:04.128Z,1014.78
2023-05-16T04:46:03.850Z,1014.79
2023-05-16T04:47:04.117Z,1014.85
2023-05-16T04:48:04.164Z,1014.84
2023-05-16T04:49:04.088Z,1014.85
2023-05-16T04:50:05.039Z,1014.86
2023-05-16T04:51:04.022Z,1014.86
2023-05-16T04:52:04.012Z,1014.92
2023-05-16T04:53:03.728Z,1014.95
2023-05-16T04:54:03.710Z,1014.95
2023-05-16T04:55:04.005Z,1014.97
2023-05-16T04:56:03.968Z,1014.98
2023-05-16T04:57:03.984Z,1015.02
2023-05-16T04:58:03.042Z,1015.02
2023-05-16T04:59:03.960Z,1015.02
2023-05-16T05:00:03.933Z,1015.00
2023-05-16T05:01:03.667Z,1015.01
2023-05-16T05:02:04.001Z,1015.04
2023-05-16T05:03:03.630Z,1015.06
2023-05-16T05:04:03.887Z,1015.09
2023-05-16T05:05:03.967Z,1015.05
2023-05-16T05:06:03.636Z,1015.07
2023-05-16T05:07:03.574Z,1015.11
2023-05-16T05:08:03.559Z,1015.12
2023-05-16T05:09:03.833Z,1015.16
2023-05-16T05:10:03.827Z,1015.20
2023-05-16T05:11:03.546Z,1015.26
2023-05-16T05:12:03.512Z,1015.19
2023-05-16T05:13:03.524Z,1015.24
2023-05-16T05:14:03.516Z,1015.21
2023-05-16T05:15:03.509Z,1015.29
2023-05-16T05:16:03.761Z,1015.28
2023-05-16T05:17:03.831Z,1015.31
2023-05-16T05:18:03.641Z,1015.29
2023-05-16T05:19:02.906Z,1015.35
2023-05-16T05:20:03.504Z,1015.35
2023-05-16T05:21:03.717Z,1015.38
2023-05-16T05:22:03.728Z,1015.37
2023-05-16T05:23:03.412Z,1015.39
2023-05-16T05:24:03.395Z,1015.36
2023-05-16T05:25:03.675Z,1015.38
2023-05-16T05:26:03.668Z,1015.42
2023-05-16T05:27:03.635Z,1015.38
2023-05-16T05:28:03.356Z,1015.41
2023-05-16T05:29:05.765Z,1015.37
2023-05-16T05:30:04.652Z,1015.38
2023-05-16T05:31:03.306Z,1015.41
2023-05-16T05:32:03.723Z,1015.45
2023-05-16T05:33:03.624Z,1015.38
2023-05-16T05:34:03.285Z,1015.42
2023-05-16T05:35:04.567Z,1015.46
2023-05-16T05:36:04.185Z,1015.49
2023-05-16T05:37:03.521Z,1015.46
2023-05-16T05:38:03.260Z,1015.46
2023-05-16T05:39:03.502Z,1015.50
2023-05-16T05:40:03.223Z,1015.51
2023-05-16T05:41:03.215Z,1015.53
2023-05-16T05:42:03.460Z,1015.58
2023-05-16T05:43:03.441Z,1015.55
2023-05-16T05:44:03.469Z,1015.53
2023-05-16T05:45:03.454Z,1015.49
2023-05-16T05:46:03.214Z,1015.58
2023-05-16T05:47:03.146Z,1015.54
2023-05-16T05:48:03.241Z,1015.57
2023-05-16T05:49:03.404Z,1015.58
2023-05-16T05:50:03.118Z,1015.64
2023-05-16T05:51:03.380Z,1015.63
2023-05-16T05:52:03.354Z,1015.63
2023-05-16T05:53:03.086Z,1015.65
2023-05-16T05:54:03.353Z,1015.70
2023-05-16T05:55:04.327Z,1015.70
2023-05-16T05:56:03.052Z,1015.74
2023-05-16T05:57:04.337Z,1015.64
2023-05-16T05:58:06.918Z,1015.73
2023-05-16T05:59:03.323Z,1015.79
2023-05-16T06:00:03.019Z,1015.82
2023-05-16T06:01:02.328Z,1015.85
2023-05-16T06:02:02.364Z,1015.80
2023-05-16T06:03:02.323Z,1015.87
2023-05-16T06:04:02.964Z,1016.02
2023-05-16T06:05:03.260Z,1016.02
2023-05-16T06:06:03.016Z,1015.99
2023-05-16T06:07:02.935Z,1016.00
2023-05-16T06:08:02.257Z,1015.88
2023-05-16T06:09:02.915Z,1015.91
2023-05-16T06:10:04.696Z,1015.67
2023-05-16T06:11:02.891Z,1015.85
2023-05-16T06:12:02.869Z,1015.97
2023-05-16T06:13:03.153Z,1015.97
2023-05-16T06:14:04.115Z,1016.00
2023-05-16T06:15:03.107Z,1015.96
2023-05-16T06:16:02.837Z,1015.94
2023-05-16T06:17:03.186Z,1016.03
2023-05-16T06:18:02.916Z,1015.99
2023-05-16T06:19:02.848Z,1015.98
2023-05-16T06:20:03.061Z,1016.05
2023-05-16T06:21:03.046Z,1016.02
2023-05-16T06:22:03.049Z,1016.06
2023-05-16T06:23:03.028Z,1015.92
2023-05-16T06:24:03.008Z,1016.16
2023-05-16T06:25:03.016Z,1016.23
2023-05-16T06:26:02.709Z,1016.17
2023-05-16T06:27:02.697Z,1016.37
2023-05-16T06:28:02.708Z,1016.40
2023-05-16T06:29:02.693Z,1016.49
2023-05-16T06:30:02.942Z,1016.42
2023-05-16T06:31:02.703Z,1016.24
2023-05-16T06:32:03.050Z,1016.45
2023-05-16T06:33:03.505Z,1016.07
2023-05-16T06:34:02.917Z,1015.78
2023-05-16T06:35:02.865Z,1015.84
2023-05-16T06:36:02.904Z,1015.80
2023-05-16T06:37:01.927Z,1016.66
2023-05-16T06:38:01.943Z,1016.67
2023-05-16T06:39:02.893Z,1015.83
2023-05-16T06:40:01.917Z,1015.86
2023-05-16T06:41:02.837Z,1015.94
2023-05-16T06:42:02.561Z,1016.68
2023-05-16T06:43:02.546Z,1015.79
2023-05-16T06:44:02.542Z,1016.03
2023-05-16T06:45:02.515Z,1015.90
2023-05-16T06:46:02.568Z,1016.40
2023-05-16T06:47:02.621Z,1015.90
2023-05-16T06:48:02.530Z,1016.55
2023-05-16T06:49:02.482Z,1015.94
2023-05-16T06:50:01.833Z,1015.97
2023-05-16T06:51:01.780Z,1015.95
2023-05-16T06:52:02.467Z,1015.95
2023-05-16T06:53:02.438Z,1016.02
2023-05-16T06:54:04.145Z,1016.10
2023-05-16T06:55:02.406Z,1016.25
2023-05-16T06:56:02.399Z,1016.38
2023-05-16T06:57:02.398Z,1015.88
2023-05-16T06:58:02.393Z,1015.94
2023-05-16T06:59:02.360Z,1015.93
2023-05-16T07:00:04.146Z,1016.00
2023-05-16T07:01:02.385Z,1015.92
2023-05-16T07:02:02.344Z,1015.92
2023-05-16T07:03:01.807Z,1015.88
2023-05-16T07:04:01.882Z,1015.95
2023-05-16T07:05:02.304Z,1015.91
2023-05-16T07:06:02.309Z,1015.86
2023-05-16T07:07:02.283Z,1015.87
2023-05-16T07:08:01.612Z,1015.89
2023-05-16T07:09:02.273Z,1015.93
2023-05-16T07:10:02.255Z,1015.94
2023-05-16T07:11:02.244Z,1015.95
2023-05-16T07:12:01.548Z,1015.93
2023-05-16T07:13:02.214Z,1015.90
2023-05-16T07:14:01.527Z,1016.29
2023-05-16T07:15:02.193Z,1016.27
2023-05-16T07:16:02.199Z,1016.26
2023-05-16T07:17:01.614Z,1016.23
2023-05-16T07:18:01.576Z,1015.92
2023-05-16T07:19:01.551Z,1016.28
2023-05-16T07:20:04.369Z,1016.07
2023-05-16T07:21:02.129Z,1016.32
2023-05-16T07:22:02.108Z,1016.29
2023-05-16T07:23:02.115Z,1016.30
2023-05-16T07:24:01.466Z,1016.27
2023-05-16T07:25:02.095Z,1016.36
2023-05-16T07:26:01.411Z,1016.22
2023-05-16T07:27:02.049Z,1016.19
2023-05-16T07:28:02.054Z,1016.12
2023-05-16T07:29:02.048Z,1016.19
2023-05-16T07:30:01.358Z,1016.15
2023-05-16T07:31:02.031Z,1016.06
2023-05-16T07:32:02.057Z,1016.06
2023-05-16T07:33:02.065Z,1016.16
2023-05-16T07:34:02.000Z,1016.21
2023-05-16T07:35:01.996Z,1016.10
2023-05-16T07:36:15.380Z,1016.15
2023-05-16T07:37:02.959Z,1016.34
2023-05-16T07:38:01.253Z,1016.30
2023-05-16T07:39:01.275Z,1016.38
2023-05-16T07:40:01.262Z,1016.30
2023-05-16T07:41:01.262Z,1016.35
2023-05-16T07:42:05.158Z,1016.29
2023-05-16T07:43:01.211Z,1016.26
2023-05-16T07:44:01.875Z,1016.32
2023-05-16T07:45:01.848Z,1016.14
2023-05-16T07:46:01.227Z,1016.34
2023-05-16T07:47:01.843Z,1016.35
2023-05-16T07:48:01.884Z,1016.34
2023-05-16T07:49:01.820Z,1016.28
2023-05-16T07:50:01.163Z,1016.33
2023-05-16T07:51:01.805Z,1016.27
2023-05-16T07:52:01.124Z,1016.31
2023-05-16T07:53:01.105Z,1016.20
2023-05-16T07:54:01.753Z,1016.16
2023-05-16T07:55:01.742Z,1016.15
2023-05-16T07:56:01.754Z,1016.06
2023-05-16T07:57:01.730Z,1016.13
2023-05-16T07:58:01.725Z,1016.13
2023-05-16T07:59:01.105Z,1016.11
2023-05-16T08:00:01.033Z,1016.14
2023-05-16T08:01:01.695Z,1016.09
2023-05-16T08:02:01.798Z,1016.09
2023-05-16T08:03:01.755Z,1016.17
2023-05-16T08:04:01.695Z,1016.36
2023-05-16T08:05:01.694Z,1016.19
2023-05-16T08:06:01.012Z,1016.08
2023-05-16T08:07:00.950Z,1016.13
2023-05-16T08:08:00.972Z,1016.09
2023-05-16T08:09:01.583Z,1016.18
2023-05-16T08:10:01.590Z,1016.15
2023-05-16T08:11:01.584Z,1016.14
2023-05-16T08:12:00.893Z,1016.17
2023-05-16T08:13:00.904Z,1016.33
2023-05-16T08:14:01.553Z,1016.40
2023-05-16T08:15:01.537Z,1016.38
2023-05-16T08:16:01.553Z,1016.29
2023-05-16T08:17:00.908Z,1016.20
2023-05-16T08:18:01.581Z,1016.37
2023-05-16T08:19:01.611Z,1016.40
2023-05-16T08:20:00.806Z,1016.12
2023-05-16T08:21:01.472Z,1016.09
2023-05-16T08:22:01.458Z,1016.11
2023-05-16T08:23:01.452Z,1016.16
2023-05-16T08:24:00.753Z,1016.15
2023-05-16T08:25:01.436Z,1016.12
2023-05-16T08:26:01.423Z,1016.23
2023-05-16T08:27:01.418Z,1016.21
2023-05-16T08:28:01.411Z,1016.18
2023-05-16T08:29:00.733Z,1016.25
2023-05-16T08:30:01.395Z,1016.23
2023-05-16T08:31:00.753Z,1016.28
2023-05-16T08:32:00.728Z,1016.25
2023-05-16T08:33:01.407Z,1016.28
2023-05-16T08:34:01.334Z,1016.22
2023-05-16T08:35:00.653Z,1016.19
2023-05-16T08:36:00.649Z,1016.22
2023-05-16T08:37:01.301Z,1016.21
2023-05-16T08:38:01.302Z,1016.19
2023-05-16T08:39:01.291Z,1016.11
2023-05-16T08:40:00.598Z,1016.13
2023-05-16T08:41:01.240Z,1016.09
2023-05-16T08:42:00.572Z,1016.17
2023-05-16T08:43:01.254Z,1016.16
2023-05-16T08:44:01.226Z,1016.13
2023-05-16T08:45:01.198Z,1016.20
2023-05-16T08:46:00.547Z,1016.16
2023-05-16T08:47:01.229Z,1016.12
2023-05-16T08:48:01.229Z,1016.11
2023-05-16T08:49:01.188Z,1016.11
2023-05-16T08:50:00.527Z,1016.07
2023-05-16T08:51:01.154Z,1016.10
2023-05-16T08:52:01.174Z,1016.12
2023-05-16T08:53:01.135Z,1016.10
2023-05-16T08:54:01.141Z,1016.12
2023-05-16T08:55:09.933Z,1016.08
2023-05-16T08:56:01.411Z,1016.14
2023-05-16T08:57:01.087Z,1016.16
2023-05-16T08:58:01.080Z,1016.10
2023-05-16T08:59:00.417Z,1016.06
2023-05-16T09:00:01.076Z,1016.12
2023-05-16T09:01:01.061Z,1016.20
2023-05-16T09:02:01.046Z,1016.20
2023-05-16T09:03:01.104Z,1016.11
2023-05-16T09:04:00.385Z,1016.13
2023-05-16T09:05:01.003Z,1016.05
2023-05-16T09:06:00.993Z,1016.21
2023-05-16T09:07:00.990Z,1016.11
2023-05-16T09:08:00.980Z,1016.10
2023-05-16T09:09:00.947Z,1016.09
2023-05-16T09:10:00.273Z,1016.04
2023-05-16T09:11:00.937Z,1016.12
2023-05-16T09:12:00.938Z,1016.05
2023-05-16T09:13:00.900Z,1016.08
2023-05-16T09:14:00.272Z,1016.02
2023-05-16T09:15:00.894Z,1016.06
2023-05-16T09:16:00.280Z,1016.06
2023-05-16T09:17:00.899Z,1016.00
2023-05-16T09:18:00.598Z,1016.01
2023-05-16T09:19:01.008Z,1016.07
2023-05-16T09:20:00.154Z,1016.14
2023-05-16T09:21:00.142Z,1016.10
2023-05-16T09:22:00.795Z,1016.14
2023-05-16T09:23:00.138Z,1016.19
2023-05-16T09:24:00.798Z,1016.12
2023-05-16T09:25:00.788Z,1016.19
2023-05-16T09:26:00.775Z,1016.14
2023-05-16T09:27:00.115Z,1016.10
2023-05-16T09:28:00.756Z,1016.13
2023-05-16T09:29:00.742Z,1016.14
2023-05-16T09:30:00.077Z,1016.08
2023-05-16T09:31:00.759Z,1016.11
2023-05-16T09:32:00.046Z,1016.07
2023-05-16T09:33:00.142Z,1016.10
2023-05-16T09:34:02.460Z,1016.05
2023-05-16T09:35:00.688Z,1016.00
2023-05-16T09:36:00.681Z,1015.90
2023-05-16T09:37:00.002Z,1016.10
2023-05-16T09:37:59.967Z,1016.09
2023-05-16T09:39:00.927Z,1016.06
2023-05-16T09:40:00.622Z,1016.04
2023-05-16T09:41:00.610Z,1016.08
2023-05-16T09:42:00.595Z,1016.04
2023-05-16T09:43:00.613Z,1015.97
2023-05-16T09:43:59.903Z,1015.95
2023-05-16T09:45:01.453Z,1015.98
2023-05-16T09:46:00.552Z,1016.05
2023-05-16T09:47:00.547Z,1016.05
2023-05-16T09:48:00.569Z,1015.93
2023-05-16T09:48:59.884Z,1016.05
2023-05-16T09:49:59.839Z,1015.98
2023-05-16T09:51:02.521Z,1016.03
2023-05-16T09:52:00.498Z,1016.08
2023-05-16T09:52:59.798Z,1016.05
2023-05-16T09:54:00.627Z,1015.98
2023-05-16T09:55:00.530Z,1015.98
2023-05-16T09:55:59.764Z,1015.98
2023-05-16T09:57:02.161Z,1016.04
2023-05-16T09:58:00.433Z,1016.06
2023-05-16T09:59:00.418Z,1016.10
2023-05-16T10:00:00.392Z,1016.15
2023-05-16T10:01:00.403Z,1016.09
2023-05-16T10:01:59.748Z,1016.09
2023-05-16T10:03:01.524Z,1016.16
2023-05-16T10:04:00.501Z,1016.15
2023-05-16T10:05:04.243Z,1016.11
2023-05-16T10:05:59.635Z,1016.17
2023-05-16T10:06:59.640Z,1016.09
2023-05-16T10:07:59.648Z,1016.11
2023-05-16T10:09:01.145Z,1016.12
2023-05-16T10:10:00.302Z,1016.11
2023-05-16T10:10:59.602Z,1016.13
2023-05-16T10:14:13.648Z,1016.07
2023-05-16T10:15:11.683Z,1016.02
2023-05-16T10:16:12.450Z,1016.07
2023-05-16T10:17:12.363Z,1016.07
2023-05-16T10:18:12.392Z,1016.05
2023-05-16T10:19:12.415Z,1016.05
2023-05-16T10:20:11.640Z,1016.05
2023-05-16T10:21:12.158Z,1016.14
2023-05-16T10:22:11.616Z,1016.10
2023-05-16T10:23:12.289Z,1016.10
2023-05-16T10:24:12.287Z,1016.09
2023-05-16T10:25:12.554Z,1016.07
2023-05-16T10:26:11.673Z,1016.02
2023-05-16T10:27:12.247Z,1016.02
2023-05-16T10:28:12.522Z,1015.92
2023-05-16T10:29:12.228Z,1016.06
2023-05-16T10:30:12.225Z,1016.09
2023-05-16T10:31:12.219Z,1016.04
2023-05-16T10:32:12.311Z,1016.05
2023-05-16T10:33:11.529Z,1016.05
2023-05-16T10:34:11.498Z,1016.03
2023-05-16T10:35:12.169Z,1016.11
2023-05-16T10:36:12.154Z,1016.08
2023-05-16T10:37:11.476Z,1016.33
2023-05-16T10:38:11.451Z,1016.25
2023-05-16T10:39:11.436Z,1016.22
2023-05-16T10:40:11.426Z,1016.18
2023-05-16T10:41:11.460Z,1016.14
2023-05-16T10:42:12.067Z,1016.18
2023-05-16T10:43:12.093Z,1016.05
2023-05-16T10:44:11.372Z,1015.98
2023-05-16T10:45:12.355Z,1015.95
2023-05-16T10:46:12.222Z,1015.92
2023-05-16T10:47:11.354Z,1015.87
2023-05-16T10:48:11.439Z,1015.95
2023-05-16T10:49:12.005Z,1015.97
2023-05-16T10:50:11.352Z,1015.86
2023-05-16T10:51:11.308Z,1015.89
2023-05-16T10:52:11.970Z,1015.92
2023-05-16T10:53:11.277Z,1015.87
2023-05-16T10:54:11.971Z,1015.94
2023-05-16T10:55:11.919Z,1015.86
2023-05-16T10:56:11.275Z,1015.93
2023-05-16T10:57:11.252Z,1015.90
2023-05-16T10:58:11.915Z,1015.91
2023-05-16T10:59:11.925Z,1015.87
2023-05-16T11:00:11.881Z,1015.86
2023-05-16T11:01:11.214Z,1015.80
2023-05-16T11:02:11.915Z,1015.89
2023-05-16T11:03:15.505Z,1015.92
2023-05-16T11:04:11.846Z,1015.92
2023-05-16T11:05:13.619Z,1015.89
2023-05-16T11:06:11.834Z,1015.87
2023-05-16T11:07:11.810Z,1015.85
2023-05-16T11:08:11.114Z,1015.81
2023-05-16T11:09:11.162Z,1015.80
2023-05-16T11:10:11.114Z,1015.85
2023-05-16T11:11:11.095Z,1015.81
2023-05-16T11:12:11.762Z,1015.86
2023-05-16T11:13:11.066Z,1015.91
2023-05-16T11:14:11.723Z,1015.91
2023-05-16T11:15:13.483Z,1015.97
2023-05-16T11:16:11.716Z,1015.91
2023-05-16T11:17:12.009Z,1015.94
2023-05-16T11:18:11.773Z,1015.92
2023-05-16T11:19:11.104Z,1015.95
2023-05-16T11:20:11.677Z,1015.90
2023-05-16T11:21:11.017Z,1015.88
2023-05-16T11:22:11.658Z,1015.90
2023-05-16T11:23:11.624Z,1015.92
2023-05-16T11:24:10.976Z,1015.91
2023-05-16T11:25:11.619Z,1015.94
2023-05-16T11:26:10.954Z,1015.92
2023-05-16T11:27:10.914Z,1015.90
2023-05-16T11:28:11.571Z,1015.86
2023-05-16T11:29:11.578Z,1015.79
2023-05-16T11:30:11.588Z,1015.83
2023-05-16T11:31:10.952Z,1015.82
2023-05-16T11:32:10.872Z,1015.86
2023-05-16T11:33:11.847Z,1015.82
2023-05-16T11:34:10.826Z,1015.83
2023-05-16T11:35:15.005Z,1015.87
2023-05-16T11:36:16.277Z,1015.77
2023-05-16T11:37:11.836Z,1015.82
2023-05-16T11:38:11.464Z,1015.84
2023-05-16T11:39:11.546Z,1015.85
2023-05-16T11:40:10.788Z,1015.78
2023-05-16T11:41:11.524Z,1015.84
2023-05-16T11:42:11.428Z,1015.86
2023-05-16T11:43:10.742Z,1015.86
2023-05-16T11:44:11.691Z,1015.82
2023-05-16T11:45:13.192Z,1015.79
2023-05-16T11:46:10.768Z,1015.86
2023-05-16T11:47:12.484Z,1015.87
2023-05-16T11:48:16.558Z,1016.01
2023-05-16T11:49:13.607Z,1015.91
2023-05-16T11:50:11.357Z,1015.96
2023-05-16T11:51:11.334Z,1015.97
2023-05-16T11:52:11.330Z,1015.94
2023-05-16T11:53:11.322Z,1015.89
2023-05-16T11:54:10.640Z,1015.89
2023-05-16T11:55:28.414Z,1015.85
2023-05-16T11:56:13.548Z,1015.89
2023-05-16T11:57:11.297Z,1015.88
2023-05-16T11:58:10.578Z,1015.93
2023-05-16T11:59:11.265Z,1015.96
2023-05-16T12:00:13.098Z,1015.91
2023-05-16T12:01:10.582Z,1015.83
2023-05-16T12:02:11.230Z,1015.88
2023-05-16T12:03:11.375Z,1015.85
2023-05-16T12:04:11.377Z,1015.86
2023-05-16T12:05:13.047Z,1015.90
2023-05-16T12:06:10.493Z,1015.92
2023-05-16T12:07:10.482Z,1015.91